Time;durP1;ratioP1;P1;durP2;ratioP2;P2;SDS_P1;SDS_P2;PMS_P1;PMS_P2;Temp;Humidity;BMP_temperature;BMP_pressure;BME280_temperature;BME280_humidity;BME280_pressure;Samples;Min_cycle;Max_cycle;Signal;HPM_P1;HPM_P2
2023/06/28 04:01:40;;;;;;;7.00;2.58;;;21.00;85.90;;;;;;5478571;23;20049;-77
2023/06/28 04:04:06;;;;;;;4.88;2.20;;;21.10;86.10;;;;;;5055697;28;20331;-77
2023/06/28 04:06:31;;;;;;;4.78;2.75;;;21.00;86.50;;;;;;5046454;28;20029;-78
2023/06/28 04:08:57;;;;;;;5.22;2.40;;;21.00;86.70;;;;;;5040490;28;20028;-78
2023/06/28 04:11:22;;;;;;;7.60;2.22;;;20.80;87.20;;;;;;5051095;28;20037;-79
2023/06/28 04:13:48;;;;;;;7.15;2.30;;;20.70;87.80;;;;;;5022705;28;20021;-78
2023/06/28 04:16:14;;;;;;;5.53;1.92;;;20.70;88.30;;;;;;5023800;28;20163;-77
2023/06/28 04:18:39;;;;;;;6.22;2.50;;;20.70;88.60;;;;;;5019350;28;20434;-77
2023/06/28 04:21:05;;;;;;;8.27;2.55;;;20.60;88.80;;;;;;5023779;28;20029;-79
2023/06/28 04:23:30;;;;;;;3.47;2.03;;;20.50;88.70;;;;;;5044524;28;20078;-78
2023/06/28 04:25:57;;;;;;;4.72;1.95;;;20.40;88.60;;;;;;5020755;28;20033;-77
2023/06/28 04:28:24;;;;;;;7.07;2.20;;;20.40;88.70;;;;;;5017728;28;20105;-77
2023/06/28 04:30:49;;;;;;;6.03;1.92;;;20.20;88.90;;;;;;5035357;28;20101;-77
2023/06/28 04:33:18;;;;;;;4.72;2.30;;;20.20;88.60;;;;;;5017512;28;20481;-76
2023/06/28 04:35:46;;;;;;;8.35;2.70;;;20.30;87.80;;;;;;5013897;28;20018;-77
2023/06/28 04:38:13;;;;;;;6.25;2.50;;;20.30;86.90;;;;;;5014590;28;20080;-78
2023/06/28 04:40:39;;;;;;;8.13;2.25;;;20.40;86.90;;;;;;5011310;28;20021;-77
2023/06/28 04:43:09;;;;;;;5.30;2.28;;;20.30;86.80;;;;;;5019024;28;20029;-79
2023/06/28 04:45:37;;;;;;;5.25;2.53;;;20.30;86.80;;;;;;5021043;28;20383;-74
2023/06/28 04:48:06;;;;;;;8.35;2.55;;;20.50;86.10;;;;;;5034303;28;20026;-74
2023/06/28 04:50:37;;;;;;;6.05;2.00;;;20.60;86.80;;;;;;5031179;28;20041;-70
2023/06/28 04:53:05;;;;;;;5.10;2.28;;;20.60;86.10;;;;;;5016361;28;20033;-71
2023/06/28 04:55:35;;;;;;;6.13;2.17;;;20.70;85.20;;;;;;5016481;28;20116;-70
2023/06/28 04:58:05;;;;;;;5.97;2.33;;;20.70;84.90;;;;;;5024529;28;20022;-71
2023/06/28 05:00:31;;;;;;;5.93;2.17;;;20.80;85.10;;;;;;5014212;28;20022;-70
2023/06/28 05:02:59;;;;;;;6.68;2.15;;;20.90;85.10;;;;;;5014885;28;20088;-70
2023/06/28 05:05:26;;;;;;;6.90;2.53;;;20.90;85.20;;;;;;4997062;28;20037;-72
2023/06/28 05:07:52;;;;;;;;;;;21.00;85.20;;;;;;5015314;28;20022;-72
2023/06/28 05:10:18;;;;;;;4.93;2.03;;;21.00;85.30;;;;;;5012893;28;19956;-72
2023/06/28 05:12:43;;;;;;;7.78;1.98;;;20.80;85.50;;;;;;5003433;28;20248;-72
2023/06/28 05:15:10;;;;;;;10.07;2.80;;;20.80;86.10;;;;;;5033702;28;20486;-75
2023/06/28 05:17:35;;;;;;;;;;;20.90;86.40;;;;;;5016725;28;20026;-70
2023/06/28 05:20:01;;;;;;;5.63;1.80;;;21.00;86.60;;;;;;5015707;28;19905;-71
2023/06/28 05:22:27;;;;;;;6.93;2.28;;;21.00;86.20;;;;;;5016293;28;20389;-72
2023/06/28 05:24:53;;;;;;;7.38;2.40;;;20.90;85.90;;;;;;5033926;28;20105;-72
2023/06/28 05:27:20;;;;;;;4.70;2.30;;;20.70;86.50;;;;;;5012267;28;20056;-73
2023/06/28 05:29:46;;;;;;;5.75;2.05;;;20.70;86.30;;;;;;5022329;28;20029;-71
2023/06/28 05:32:13;;;;;;;4.97;2.38;;;20.60;86.10;;;;;;5023636;28;20503;-72
2023/06/28 05:34:39;;;;;;;6.95;2.13;;;20.50;85.70;;;;;;5017362;28;20088;-72
2023/06/28 05:37:05;;;;;;;;;;;20.50;85.40;;;;;;5017476;28;20029;-71
2023/06/28 05:39:31;;;;;;;5.95;2.00;;;20.40;85.70;;;;;;5015795;28;19916;-72
2023/06/28 05:41:57;;;;;;;8.38;2.17;;;20.30;85.80;;;;;;5028509;28;20035;-73
2023/06/28 05:44:22;;;;;;;7.57;1.98;;;20.30;85.70;;;;;;5010058;28;20032;-74
2023/06/28 05:46:48;;;;;;;4.88;1.90;;;20.20;85.60;;;;;;5019677;28;20091;-75
2023/06/28 05:49:14;;;;;;;6.07;2.15;;;20.20;86.00;;;;;;5020713;28;20025;-75
2023/06/28 05:51:40;;;;;;;6.28;2.45;;;20.20;86.30;;;;;;5020324;28;20482;-76
2023/06/28 05:54:05;;;;;;;5.93;2.00;;;20.20;85.90;;;;;;5017029;28;20370;-74
2023/06/28 05:56:31;;;;;;;7.32;2.10;;;20.40;86.10;;;;;;5016882;28;20025;-74
2023/06/28 05:58:57;;;;;;;6.15;2.30;;;20.50;86.00;;;;;;5017590;28;20164;-74
2023/06/28 06:01:23;;;;;;;5.45;1.98;;;20.60;86.30;;;;;;5034550;28;20025;-74
2023/06/28 06:03:49;;;;;;;3.85;1.80;;;20.50;86.70;;;;;;5017175;28;20442;-75
2023/06/28 06:06:15;;;;;;;4.85;2.00;;;20.50;87.10;;;;;;5035107;28;20036;-74
2023/06/28 06:08:41;;;;;;;4.60;2.08;;;20.50;87.30;;;;;;5030761;28;20041;-73
2023/06/28 06:11:06;;;;;;;8.38;2.40;;;20.50;87.60;;;;;;5022384;28;20088;-73
2023/06/28 06:13:32;;;;;;;7.32;2.92;;;20.50;87.40;;;;;;5015915;28;20033;-71
2023/06/28 06:15:58;;;;;;;9.80;2.60;;;20.50;87.00;;;;;;5034246;28;20025;-76
2023/06/28 06:18:23;;;;;;;7.13;1.88;;;20.50;87.10;;;;;;5033468;28;20117;-74
2023/06/28 06:20:50;;;;;;;4.38;1.90;;;20.50;86.30;;;;;;5015558;28;20530;-69
2023/06/28 06:23:19;;;;;;;5.95;2.13;;;20.50;86.30;;;;;;5033684;28;20021;-73
2023/06/28 06:25:44;;;;;;;8.30;1.90;;;20.50;85.70;;;;;;5033245;28;20105;-72
2023/06/28 06:28:10;;;;;;;6.63;2.30;;;20.50;86.20;;;;;;5016172;28;20045;-75
2023/06/28 06:30:36;;;;;;;7.85;2.00;;;20.50;86.10;;;;;;5016047;28;20036;-76
2023/06/28 06:33:01;;;;;;;5.15;2.10;;;20.60;86.30;;;;;;5015537;28;20029;-76
2023/06/28 06:35:29;;;;;;;9.07;2.58;;;20.70;86.30;;;;;;5015766;28;20546;-77
2023/06/28 06:37:55;;;;;;;3.53;1.85;;;20.50;86.60;;;;;;5033811;28;20033;-76
2023/06/28 06:40:21;;;;;;;5.78;2.13;;;20.50;87.20;;;;;;5015490;28;20021;-66
2023/06/28 06:42:46;;;;;;;4.35;1.90;;;20.50;86.60;;;;;;5016655;28;20034;-69
2023/06/28 06:45:17;;;;;;;5.30;2.20;;;20.40;87.10;;;;;;5037344;28;20025;-69
2023/06/28 06:47:44;;;;;;;7.22;2.17;;;20.50;87.90;;;;;;5037274;28;20033;-70
2023/06/28 06:50:09;;;;;;;7.72;2.55;;;20.70;87.20;;;;;;5036680;28;20030;-69
2023/06/28 06:52:37;;;;;;;6.72;2.13;;;20.80;86.40;;;;;;5036076;28;20501;-68
2023/06/28 06:55:02;;;;;;;5.95;2.45;;;21.00;86.60;;;;;;5036243;28;20021;-69
2023/06/28 06:57:28;;;;;;;6.78;2.20;;;21.10;86.00;;;;;;5021019;28;20498;-74
2023/06/28 06:59:54;;;;;;;5.78;2.28;;;21.10;86.00;;;;;;5024328;28;20029;-74
2023/06/28 07:02:21;;;;;;;8.35;2.17;;;21.10;84.90;;;;;;5019478;28;20022;-73
2023/06/28 07:04:46;;;;;;;5.75;2.47;;;21.10;85.50;;;;;;5038352;28;20105;-73
2023/06/28 07:07:12;;;;;;;5.88;1.92;;;21.00;85.40;;;;;;5020896;28;20041;-74
2023/06/28 07:09:37;;;;;;;6.20;2.38;;;21.00;85.10;;;;;;5040017;28;20076;-74
2023/06/28 07:12:03;;;;;;;7.03;2.10;;;21.10;85.70;;;;;;5037937;28;20025;-73
2023/06/28 07:14:29;;;;;;;6.70;2.28;;;21.10;85.10;;;;;;5038563;28;20037;-74
2023/06/28 07:16:54;;;;;;;5.88;2.40;;;21.10;84.80;;;;;;5021232;28;20462;-74
2023/06/28 07:19:20;;;;;;;6.82;2.10;;;21.20;84.90;;;;;;5020759;28;20030;-75
2023/06/28 07:21:45;;;;;;;6.97;2.70;;;21.20;84.60;;;;;;5038887;28;20032;-75
2023/06/28 07:24:11;;;;;;;6.28;2.25;;;21.30;84.00;;;;;;5020185;28;20436;-75
2023/06/28 07:26:37;;;;;;;5.40;2.30;;;21.40;84.60;;;;;;5020803;28;20474;-74
2023/06/28 07:29:02;;;;;;;7.50;3.13;;;21.60;84.00;;;;;;5038453;28;20068;-74
2023/06/28 07:31:28;;;;;;;4.90;2.00;;;21.80;84.00;;;;;;5020805;28;20026;-74
2023/06/28 07:33:53;;;;;;;7.45;2.60;;;22.00;84.10;;;;;;5037094;28;20478;-74
2023/06/28 07:36:19;;;;;;;6.72;2.30;;;22.10;83.50;;;;;;5018856;28;20026;-74
2023/06/28 07:38:45;;;;;;;7.50;2.67;;;22.30;82.50;;;;;;5018710;28;20040;-73
2023/06/28 07:41:10;;;;;;;8.02;2.10;;;22.50;82.20;;;;;;5019123;28;20068;-74
2023/06/28 07:43:36;;;;;;;8.07;2.42;;;22.50;82.20;;;;;;5019209;28;20509;-74
2023/06/28 07:46:03;;;;;;;;;;;22.60;82.10;;;;;;5036833;28;20035;-73
2023/06/28 07:48:29;;;;;;;15.38;3.00;;;22.70;80.80;;;;;;5036469;28;20254;-74
2023/06/28 07:50:55;;;;;;;;;;;22.90;81.00;;;;;;5037785;28;20033;-74
2023/06/28 07:53:20;;;;;;;6.68;2.35;;;23.20;81.30;;;;;;5038654;28;19909;-75
2023/06/28 07:55:46;;;;;;;;;;;23.60;78.90;;;;;;5038400;28;20033;-74
2023/06/28 07:58:11;;;;;;;11.63;3.30;;;23.90;78.80;;;;;;5021742;28;19905;-75
2023/06/28 08:00:37;;;;;;;;;;;24.30;76.50;;;;;;5015219;28;20493;-75
2023/06/28 08:03:03;;;;;;;9.70;2.35;;;24.80;75.20;;;;;;5017740;28;19924;-75
2023/06/28 08:05:29;;;;;;;;;;;25.40;73.20;;;;;;5017753;28;20022;-75
2023/06/28 08:07:55;;;;;;;7.10;2.00;;;25.60;72.20;;;;;;4999530;28;19905;-74
2023/06/28 08:10:22;;;;;;;7.70;2.75;;;25.90;72.40;;;;;;4999880;28;20272;-75
2023/06/28 08:12:47;;;;;;;5.65;2.10;;;26.40;71.10;;;;;;5005277;28;20079;-74
2023/06/28 08:15:13;;;;;;;4.10;2.10;;;26.80;69.50;;;;;;5019354;28;20033;-75
2023/06/28 08:17:39;;;;;;;7.45;2.25;;;26.60;69.40;;;;;;5019841;28;20504;-74
2023/06/28 08:20:06;;;;;;;5.93;2.10;;;26.90;68.70;;;;;;5020464;28;20441;-75
2023/06/28 08:22:31;;;;;;;7.97;2.40;;;27.00;68.40;;;;;;5038307;28;20089;-72
2023/06/28 08:24:57;;;;;;;6.90;2.30;;;27.00;67.90;;;;;;5021844;28;20045;-75
2023/06/28 08:27:22;;;;;;;5.03;1.92;;;27.00;68.00;;;;;;5038902;28;20021;-75
2023/06/28 08:29:48;;;;;;;8.55;2.10;;;27.10;67.80;;;;;;5019300;28;20120;-75
2023/06/28 08:32:13;;;;;;;7.20;2.10;;;28.10;68.10;;;;;;5019101;28;20068;-76
2023/06/28 08:34:39;;;;;;;7.30;2.35;;;30.00;64.50;;;;;;5037311;28;20057;-75
2023/06/28 08:37:06;;;;;;;8.30;2.00;;;31.30;61.90;;;;;;5037836;28;20037;-76
2023/06/28 08:39:31;;;;;;;4.18;2.05;;;32.90;60.90;;;;;;5019603;28;20021;-76
2023/06/28 08:42:00;;;;;;;8.00;2.22;;;34.30;58.70;;;;;;5021597;28;20028;-75
2023/06/28 08:44:28;;;;;;;9.15;2.22;;;35.30;57.20;;;;;;5045538;28;20026;-75
2023/06/28 08:46:54;;;;;;;4.65;1.80;;;34.60;56.90;;;;;;5043298;28;20135;-75
2023/06/28 08:49:20;;;;;;;5.32;2.08;;;35.20;55.70;;;;;;5042303;28;20488;-76
2023/06/28 08:51:46;;;;;;;6.78;2.05;;;34.90;55.00;;;;;;5025790;28;20060;-75
2023/06/28 08:54:13;;;;;;;5.75;2.20;;;33.80;57.30;;;;;;5039426;28;20036;-75
2023/06/28 08:56:40;;;;;;;4.57;2.03;;;34.20;56.30;;;;;;5043521;28;20053;-76
2023/06/28 08:59:06;;;;;;;7.43;2.35;;;34.80;55.30;;;;;;5019861;28;20037;-76
2023/06/28 09:01:33;;;;;;;5.35;2.00;;;35.00;55.40;;;;;;5019429;28;20029;-76
2023/06/28 09:03:59;;;;;;;6.45;2.40;;;35.30;55.20;;;;;;5037088;28;20022;-76
2023/06/28 09:06:27;;;;;;;6.22;2.13;;;35.70;54.50;;;;;;5034337;28;20111;-73
2023/06/28 09:08:54;;;;;;;4.28;1.90;;;36.70;55.10;;;;;;5033807;28;20025;-69
2023/06/28 09:11:20;;;;;;;4.25;1.92;;;37.90;53.20;;;;;;5033973;28;20548;-71
2023/06/28 09:13:46;;;;;;;5.45;2.13;;;39.20;52.10;;;;;;5016538;28;20026;-72
2023/06/28 09:16:11;;;;;;;5.13;1.95;;;40.00;51.10;;;;;;5037078;28;20093;-72
2023/06/28 09:18:37;;;;;;;6.03;2.45;;;40.90;50.20;;;;;;5040023;28;20026;-72
2023/06/28 09:21:04;;;;;;;9.82;3.03;;;41.40;49.40;;;;;;5045930;28;20057;-72
2023/06/28 09:23:32;;;;;;;6.35;2.03;;;41.50;48.80;;;;;;5033476;28;20017;-73
2023/06/28 09:25:58;;;;;;;4.93;2.28;;;41.10;48.70;;;;;;5039207;28;20401;-74
2023/06/28 09:28:35;;;;;;;5.80;2.40;;;40.70;48.70;;;;;;5020840;28;20021;-72
2023/06/28 09:31:01;;;;;;;5.18;2.88;;;40.30;48.70;;;;;;5038723;28;20025;-72
2023/06/28 09:33:27;;;;;;;4.82;2.20;;;39.00;49.60;;;;;;5020879;28;20056;-72
2023/06/28 09:35:57;;;;;;;7.82;2.17;;;37.00;50.90;;;;;;5019020;28;20025;-73
2023/06/28 09:38:23;;;;;;;5.90;2.25;;;36.30;51.80;;;;;;5016875;28;20454;-72
2023/06/28 09:41:02;;;;;;;7.30;2.20;;;35.80;51.90;;;;;;5033552;28;20084;-73
2023/06/28 09:43:34;;;;;;;7.28;2.10;;;35.10;52.40;;;;;;5033897;28;20017;-74
2023/06/28 09:46:17;;;;;;;7.63;2.42;;;35.20;52.20;;;;;;5034488;28;20025;-74
2023/06/28 09:48:44;;;;;;;5.60;1.95;;;35.30;53.10;;;;;;5016263;28;20030;-73
2023/06/28 09:51:14;;;;;;;4.90;2.17;;;35.10;52.70;;;;;;5016062;28;20032;-75
2023/06/28 09:53:50;;;;;;;6.82;2.15;;;35.20;52.20;;;;;;5033700;28;20029;-75
2023/06/28 09:56:19;;;;;;;5.53;1.98;;;35.80;52.30;;;;;;5034012;28;20029;-72
2023/06/28 09:58:49;;;;;;;4.80;2.10;;;36.50;51.90;;;;;;5033747;28;20098;-72
2023/06/28 10:01:15;;;;;;;6.32;2.40;;;37.40;51.40;;;;;;5015676;28;20029;-71
2023/06/28 10:03:45;;;;;;;6.88;2.03;;;36.90;51.10;;;;;;5033862;28;20021;-73
2023/06/28 10:06:11;;;;;;;5.60;2.40;;;36.10;52.30;;;;;;5016186;28;20025;-74
2023/06/28 10:08:38;;;;;;;4.35;2.03;;;35.10;51.80;;;;;;5033790;28;20497;-71
2023/06/28 10:11:12;;;;;;;4.32;2.40;;;34.70;52.50;;;;;;5033396;28;20037;-76
2023/06/28 10:13:40;;;;;;;6.57;2.10;;;34.10;52.90;;;;;;5033721;28;20545;-73
2023/06/28 10:18:34;;;;;;;8.32;2.22;;;32.40;54.10;;;;;;5004160;23;20046;-69
2023/06/28 10:21:01;;;;;;;6.70;2.10;;;31.30;55.70;;;;;;4962466;28;20030;-68
2023/06/28 10:23:27;;;;;;;10.02;2.30;;;29.60;57.40;;;;;;4965849;28;20026;-72
2023/06/28 10:25:54;;;;;;;9.48;2.55;;;30.10;57.50;;;;;;4955369;28;20035;-71
2023/06/28 10:28:21;;;;;;;7.47;2.22;;;31.60;56.00;;;;;;4977706;28;20034;-71
2023/06/28 10:30:47;;;;;;;6.88;2.35;;;32.70;55.00;;;;;;4968687;29;20031;-71
2023/06/28 10:33:18;;;;;;;6.13;2.20;;;33.20;54.50;;;;;;4964809;28;20031;-71
2023/06/28 10:35:44;;;;;;;7.82;2.90;;;32.90;54.70;;;;;;4970097;28;20601;-71
2023/06/28 10:38:10;;;;;;;6.07;2.72;;;32.80;55.10;;;;;;4954639;29;20096;-70
2023/06/28 10:40:37;;;;;;;6.60;2.50;;;33.60;54.80;;;;;;4980623;28;20102;-70
2023/06/28 10:43:03;;;;;;;6.50;2.40;;;35.00;53.30;;;;;;4969802;28;20073;-72
2023/06/28 10:45:36;;;;;;;5.93;2.30;;;35.50;52.30;;;;;;4961056;28;20365;-72
2023/06/28 10:48:03;;;;;;;4.80;2.28;;;35.70;52.00;;;;;;4972818;28;20109;-71
2023/06/28 10:50:29;;;;;;;6.40;2.47;;;35.00;51.50;;;;;;4966347;28;20088;-72
2023/06/28 10:52:57;;;;;;;5.47;2.00;;;33.50;52.50;;;;;;4958610;29;20102;-73
2023/06/28 10:55:30;;;;;;;5.03;1.85;;;32.30;53.70;;;;;;4958693;28;20551;-73
2023/06/28 10:58:11;;;;;;;5.63;1.92;;;32.10;54.90;;;;;;4956200;28;20046;-72
2023/06/28 11:00:36;;;;;;;6.30;2.35;;;31.90;54.40;;;;;;4947423;29;20495;-71
2023/06/28 11:03:04;;;;;;;9.05;2.90;;;31.00;56.60;;;;;;4959136;28;20035;-70
2023/06/28 11:05:35;;;;;;;18.33;9.77;;;31.40;55.50;;;;;;4958644;29;20103;-72
2023/06/28 11:08:43;;;;;;;4.63;2.00;;;32.10;55.10;;;;;;4974145;28;20030;-72
2023/06/28 11:11:34;;;;;;;4.90;1.65;;;32.90;53.80;;;;;;4939241;28;20121;-70
2023/06/28 11:14:17;;;;;;;6.50;1.88;;;32.60;53.30;;;;;;4967284;28;20034;-72
2023/06/28 11:16:43;;;;;;;3.92;1.65;;;32.50;54.30;;;;;;4958573;28;20117;-71
2023/06/28 11:19:15;;;;;;;5.78;2.25;;;32.40;54.80;;;;;;4961096;28;20472;-70
2023/06/28 11:21:41;;;;;;;6.35;2.00;;;32.50;54.40;;;;;;4945171;28;20023;-73
2023/06/28 11:24:07;;;;;;;6.60;2.30;;;31.90;54.60;;;;;;4958841;28;20029;-71
2023/06/28 11:26:35;;;;;;;4.97;2.25;;;32.00;55.10;;;;;;4958438;28;20093;-73
2023/06/28 11:29:01;;;;;;;4.18;1.90;;;32.10;55.10;;;;;;4955932;28;20058;-72
2023/06/28 11:31:39;;;;;;;4.82;1.80;;;31.90;55.50;;;;;;4960050;28;20079;-72
2023/06/28 11:34:07;;;;;;;4.90;2.28;;;31.30;55.90;;;;;;4941836;29;20035;-73
2023/06/28 11:36:34;;;;;;;6.72;2.53;;;31.20;56.70;;;;;;4974498;28;20106;-73
2023/06/28 11:39:00;;;;;;;4.65;1.98;;;31.10;56.90;;;;;;4959851;28;20395;-74
2023/06/28 11:41:25;;;;;;;5.95;2.58;;;30.90;57.20;;;;;;4959836;28;20109;-73
2023/06/28 11:43:51;;;;;;;6.40;1.98;;;30.60;57.30;;;;;;4977139;28;20113;-73
2023/06/28 11:46:21;;;;;;;6.63;2.83;;;30.00;58.40;;;;;;4959404;28;20030;-73
2023/06/28 11:48:49;;;;;;;7.65;3.30;;;29.50;59.00;;;;;;4946625;28;20037;-72
2023/06/28 11:51:15;;;;;;;3.78;2.00;;;29.20;59.60;;;;;;4940836;29;20031;-73
2023/06/28 11:53:47;;;;;;;5.13;2.50;;;29.10;60.10;;;;;;4959081;28;20038;-72
2023/06/28 11:56:13;;;;;;;6.78;2.90;;;29.00;60.60;;;;;;4952361;28;20031;-72
2023/06/28 11:58:38;;;;;;;7.20;2.38;;;28.70;60.80;;;;;;4957830;29;20366;-72
2023/06/28 12:01:05;;;;;;;4.80;2.17;;;28.50;61.10;;;;;;4949826;28;20088;-72
2023/06/28 12:03:30;;;;;;;8.60;2.75;;;28.00;61.90;;;;;;4959937;28;20078;-72
2023/06/28 12:05:57;;;;;;;6.45;2.58;;;28.40;62.30;;;;;;4960449;28;20038;-72
2023/06/28 12:08:22;;;;;;;8.07;2.42;;;28.60;61.70;;;;;;4959646;28;20475;-72
2023/06/28 12:10:48;;;;;;;7.85;2.20;;;28.10;62.00;;;;;;4959506;28;20058;-71
2023/06/28 12:13:23;;;;;;;5.47;2.38;;;28.10;62.40;;;;;;4950164;29;20031;-74
2023/06/28 12:15:49;;;;;;;6.13;1.97;;;27.90;62.70;;;;;;4959366;28;20027;-69
2023/06/28 12:18:15;;;;;;;5.00;2.20;;;28.20;62.60;;;;;;4967813;28;20027;-69
2023/06/28 12:20:41;;;;;;;4.82;2.20;;;28.00;62.70;;;;;;4956242;28;20142;-69
2023/06/28 12:23:13;;;;;;;6.22;2.45;;;28.10;62.60;;;;;;4957264;29;20023;-69
2023/06/28 12:25:43;;;;;;;7.25;2.35;;;28.10;62.10;;;;;;4957558;29;20039;-69
2023/06/28 12:28:12;;;;;;;5.90;2.08;;;28.30;62.50;;;;;;4970545;28;20038;-73
2023/06/28 12:30:38;;;;;;;4.35;2.28;;;28.20;62.30;;;;;;4959449;28;20054;-71
2023/06/28 12:33:08;;;;;;;6.38;1.90;;;28.10;62.10;;;;;;4945823;29;20023;-74
2023/06/28 12:35:34;;;;;;;4.00;2.10;;;27.90;62.90;;;;;;4941448;29;20066;-72
2023/06/28 12:38:02;;;;;;;3.85;2.10;;;28.00;62.90;;;;;;4968672;28;20034;-70
2023/06/28 12:40:32;;;;;;;5.18;2.20;;;28.10;62.50;;;;;;4976103;28;20502;-70
2023/06/28 12:43:18;;;;;;;7.05;2.42;;;27.90;62.70;;;;;;4964958;28;20464;-70
2023/06/28 12:45:52;;;;;;;5.75;2.05;;;27.90;63.10;;;;;;4950979;28;20023;-72
2023/06/28 12:48:18;;;;;;;4.68;1.90;;;27.80;62.30;;;;;;4947101;28;20031;-72
2023/06/28 12:50:45;;;;;;;3.38;1.70;;;27.80;62.30;;;;;;4960468;28;20523;-72
2023/06/28 12:53:11;;;;;;;4.93;1.90;;;27.70;62.40;;;;;;4955120;29;20038;-72
2023/06/28 12:55:37;;;;;;;6.82;2.33;;;27.80;62.50;;;;;;4952710;28;20015;-72
2023/06/28 12:58:03;;;;;;;10.90;2.28;;;28.00;62.20;;;;;;4958389;28;20022;-72
2023/06/28 13:00:28;;;;;;;5.97;2.35;;;28.00;62.60;;;;;;4956091;28;20392;-71
2023/06/28 13:02:54;;;;;;;6.10;2.25;;;28.40;62.00;;;;;;4967216;28;20429;-71
2023/06/28 13:05:21;;;;;;;5.75;2.10;;;28.60;61.40;;;;;;4947278;28;20023;-71
2023/06/28 13:07:47;;;;;;;7.25;2.50;;;28.90;61.50;;;;;;4973009;28;20090;-70
2023/06/28 13:10:12;;;;;;;6.85;1.98;;;29.10;61.10;;;;;;4980766;28;20031;-70
2023/06/28 13:12:38;;;;;;;4.68;1.90;;;29.10;60.40;;;;;;4971555;28;20487;-70
2023/06/28 13:15:04;;;;;;;3.40;1.70;;;28.90;60.90;;;;;;4957326;28;20027;-71
2023/06/28 13:17:30;;;;;;;4.68;2.10;;;28.70;60.80;;;;;;4973917;28;20033;-72
2023/06/28 13:19:55;;;;;;;6.47;2.20;;;28.60;61.30;;;;;;4958818;28;20022;-72
2023/06/28 13:22:24;;;;;;;6.53;2.10;;;28.80;61.00;;;;;;4955968;28;21704;-74
2023/06/28 13:24:49;;;;;;;3.72;1.90;;;28.90;60.90;;;;;;4973588;28;20035;-73
2023/06/28 13:27:15;;;;;;;4.97;1.98;;;29.00;60.80;;;;;;4975592;28;20034;-72
2023/06/28 13:29:41;;;;;;;8.00;2.17;;;29.10;60.60;;;;;;4957580;28;20370;-71
2023/06/28 13:32:07;;;;;;;4.10;2.17;;;28.40;61.60;;;;;;4950076;29;20099;-72
2023/06/28 13:34:32;;;;;;;8.02;2.50;;;28.60;61.60;;;;;;4940525;29;20082;-71
2023/06/28 13:36:58;;;;;;;7.85;2.05;;;28.80;61.80;;;;;;4956956;28;20031;-72
2023/06/28 13:39:23;;;;;;;12.40;2.47;;;28.90;61.70;;;;;;4947443;28;20439;-71
2023/06/28 13:41:49;;;;;;;6.45;2.03;;;28.90;61.70;;;;;;4972244;28;20092;-72
2023/06/28 13:44:14;;;;;;;6.95;2.28;;;28.80;61.30;;;;;;4968309;28;20472;-72
2023/06/28 13:46:40;;;;;;;4.55;2.10;;;28.50;61.70;;;;;;4968138;28;20030;-71
2023/06/28 13:49:05;;;;;;;4.25;1.92;;;28.40;61.80;;;;;;4973556;28;20038;-72
2023/06/28 13:51:32;;;;;;;5.18;2.00;;;28.30;61.80;;;;;;4956337;28;20397;-73
2023/06/28 13:53:57;;;;;;;4.55;2.05;;;28.40;62.00;;;;;;4938731;29;20481;-71
2023/06/28 13:56:23;;;;;;;7.57;3.00;;;28.00;61.80;;;;;;4954677;28;20035;-70
2023/06/28 13:58:49;;;;;;;7.15;2.25;;;28.00;62.50;;;;;;4944089;28;20034;-70
2023/06/28 14:01:14;;;;;;;5.32;1.85;;;27.90;62.00;;;;;;4968800;28;20379;-69
2023/06/28 14:03:40;;;;;;;4.05;1.85;;;27.90;62.40;;;;;;4974338;28;20026;-72
2023/06/28 14:06:06;;;;;;;6.18;2.00;;;27.90;62.30;;;;;;4955020;28;20027;-70
2023/06/28 14:08:32;;;;;;;5.47;2.28;;;27.80;62.60;;;;;;4949943;28;20034;-69
2023/06/28 14:10:57;;;;;;;4.60;2.33;;;27.90;62.80;;;;;;4970240;28;20476;-69
2023/06/28 14:13:23;;;;;;;4.72;2.00;;;27.50;62.90;;;;;;4954048;28;20118;-69
2023/06/28 14:15:49;;;;;;;7.18;2.75;;;27.60;63.60;;;;;;4967079;28;20467;-72
2023/06/28 14:18:14;;;;;;;4.90;2.33;;;27.50;63.60;;;;;;4956029;28;20114;-70
2023/06/28 14:20:40;;;;;;;4.28;1.95;;;27.50;63.80;;;;;;4956185;28;20067;-69
2023/06/28 14:23:05;;;;;;;6.32;2.13;;;27.60;63.30;;;;;;4978400;28;20080;-69
2023/06/28 14:25:31;;;;;;;5.07;1.77;;;27.70;63.60;;;;;;4948400;29;20031;-68
2023/06/28 14:27:56;;;;;;;5.90;2.05;;;28.00;63.10;;;;;;4950615;28;20030;-70
2023/06/28 14:30:25;;;;;;;7.65;1.85;;;28.10;62.60;;;;;;4973087;28;20030;-73
2023/06/28 14:32:51;;;;;;;3.70;1.70;;;28.00;62.60;;;;;;4941676;28;20042;-67
2023/06/28 14:35:17;;;;;;;9.18;2.85;;;28.00;63.10;;;;;;4974642;28;20038;-71
2023/06/28 14:37:43;;;;;;;6.35;2.50;;;27.90;63.00;;;;;;4957604;28;20042;-70
2023/06/28 14:40:10;;;;;;;5.18;2.15;;;28.00;63.70;;;;;;4971659;28;20079;-70
2023/06/28 14:42:35;;;;;;;7.25;1.90;;;28.20;63.50;;;;;;4962229;28;20030;-71
2023/06/28 14:45:01;;;;;;;5.18;2.17;;;28.30;63.10;;;;;;4947522;28;20023;-70
2023/06/28 14:47:27;;;;;;;7.40;2.30;;;28.30;63.00;;;;;;4971980;28;20157;-67
2023/06/28 14:49:52;;;;;;;5.82;2.13;;;28.50;63.10;;;;;;4967961;28;20045;-68
2023/06/28 14:52:18;;;;;;;7.40;1.92;;;28.30;63.10;;;;;;4972781;28;20484;-70
2023/06/28 14:54:44;;;;;;;3.17;1.85;;;28.40;63.00;;;;;;4957613;28;20038;-68
2023/06/28 14:57:10;;;;;;;4.53;1.90;;;28.60;62.90;;;;;;4974293;28;20039;-70
2023/06/28 14:59:35;;;;;;;6.50;2.08;;;28.50;62.70;;;;;;4957769;28;20488;-72
2023/06/28 15:02:01;;;;;;;5.35;1.80;;;28.50;63.00;;;;;;4957614;28;20050;-72
2023/06/28 15:04:26;;;;;;;4.57;1.90;;;28.20;63.10;;;;;;4974386;28;20098;-72
2023/06/28 15:06:52;;;;;;;4.43;2.00;;;28.00;63.30;;;;;;4978286;28;20038;-73
2023/06/28 15:09:18;;;;;;;3.85;2.00;;;27.70;63.60;;;;;;4978863;28;20062;-72
2023/06/28 15:11:43;;;;;;;6.10;1.98;;;27.60;64.40;;;;;;4960288;28;20118;-71
2023/06/28 15:14:09;;;;;;;4.00;2.20;;;27.40;64.20;;;;;;4974724;28;21290;-71
2023/06/28 15:16:35;;;;;;;4.80;2.00;;;27.30;64.10;;;;;;4962886;28;20109;-74
2023/06/28 15:19:03;;;;;;;4.22;2.17;;;27.10;64.80;;;;;;4978122;28;20023;-70
2023/06/28 15:21:29;;;;;;;6.28;3.45;;;27.10;64.80;;;;;;4962300;28;20018;-67
2023/06/28 15:23:56;;;;;;;6.97;2.10;;;27.30;64.90;;;;;;4965093;28;20107;-69
2023/06/28 15:26:22;;;;;;;4.15;1.80;;;27.50;64.30;;;;;;4979900;28;20041;-69
2023/06/28 15:28:47;;;;;;;3.08;1.80;;;27.60;64.10;;;;;;4979390;28;20081;-70
2023/06/28 15:31:13;;;;;;;6.13;3.10;;;27.70;64.10;;;;;;4975324;28;20031;-70
2023/06/28 15:33:39;;;;;;;5.93;1.70;;;27.90;63.70;;;;;;4979272;28;20041;-72
2023/06/28 15:36:04;;;;;;;4.13;2.25;;;27.90;63.80;;;;;;4973731;28;20037;-73
2023/06/28 15:38:30;;;;;;;5.75;2.70;;;27.90;63.60;;;;;;4960389;28;20038;-73
2023/06/28 15:40:55;;;;;;;7.15;1.90;;;27.80;63.90;;;;;;4978642;28;20034;-74
2023/06/28 15:43:21;;;;;;;5.00;1.98;;;27.90;64.10;;;;;;4957887;28;20070;-74
2023/06/28 15:45:48;;;;;;;4.35;1.80;;;27.90;64.00;;;;;;4958671;28;20038;-75
2023/06/28 15:48:13;;;;;;;5.13;1.75;;;27.90;63.10;;;;;;4945263;28;20492;-73
2023/06/28 15:50:39;;;;;;;6.40;2.10;;;27.90;63.20;;;;;;4953429;29;20034;-72
2023/06/28 15:53:05;;;;;;;5.85;2.10;;;27.90;63.20;;;;;;4967107;28;20027;-74
2023/06/28 15:55:30;;;;;;;5.80;2.03;;;27.70;63.30;;;;;;4959539;28;20027;-73
2023/06/28 15:57:56;;;;;;;2.80;1.70;;;27.60;63.70;;;;;;4976860;28;20163;-73
2023/06/28 16:00:21;;;;;;;9.32;2.08;;;27.40;63.70;;;;;;4977242;28;20105;-72
2023/06/28 16:02:51;;;;;;;5.78;1.85;;;27.30;64.30;;;;;;4960085;28;20051;-74
2023/06/28 16:05:18;;;;;;;3.28;1.85;;;27.30;64.50;;;;;;4958626;29;20034;-72
2023/06/28 16:07:44;;;;;;;4.18;2.08;;;27.30;64.30;;;;;;4953052;28;20049;-72
2023/06/28 16:10:09;;;;;;;5.07;2.20;;;27.20;64.70;;;;;;4960802;28;20480;-73
2023/06/28 16:12:35;;;;;;;4.63;2.10;;;27.20;64.40;;;;;;4979798;28;20034;-73
2023/06/28 16:15:01;;;;;;;6.78;2.50;;;27.00;64.60;;;;;;4961149;28;20037;-72
2023/06/28 16:17:26;;;;;;;4.07;2.17;;;27.00;64.50;;;;;;4961243;28;20035;-72
2023/06/28 16:19:52;;;;;;;6.55;2.28;;;27.00;64.50;;;;;;4976766;28;20031;-72
2023/06/28 16:22:18;;;;;;;4.93;2.50;;;26.90;64.40;;;;;;4996697;28;20047;-71
2023/06/28 16:24:43;;;;;;;3.22;1.60;;;26.90;64.60;;;;;;4991691;28;20019;-71
2023/06/28 16:27:10;;;;;;;3.90;1.80;;;26.90;64.60;;;;;;4992774;28;20022;-71
2023/06/28 16:29:36;;;;;;;4.95;1.60;;;26.90;64.40;;;;;;4970738;28;20030;-72
2023/06/28 16:32:02;;;;;;;4.28;1.80;;;26.90;64.20;;;;;;4989436;28;20027;-71
2023/06/28 16:34:29;;;;;;;5.53;3.25;;;26.70;64.90;;;;;;4957065;28;20038;-76
2023/06/28 16:36:55;;;;;;;2.97;1.92;;;26.70;66.60;;;;;;4977873;28;20026;-72
2023/06/28 16:39:21;;;;;;;4.78;1.83;;;26.80;64.90;;;;;;4954447;28;20075;-74
2023/06/28 16:41:46;;;;;;;3.25;1.55;;;26.70;64.90;;;;;;4949046;29;20058;-73
2023/06/28 16:44:13;;;;;;;4.30;1.75;;;26.80;64.90;;;;;;4959982;29;20488;-70
2023/06/28 16:46:39;;;;;;;4.57;2.40;;;26.70;64.70;;;;;;4965190;28;20114;-73
2023/06/28 16:49:04;;;;;;;3.92;1.80;;;26.70;65.00;;;;;;4963752;28;20114;-71